首页
METAR-TAF:

METAR-TAF

机场 :

辛普森堡, 西北特區, 加拿大

纬度: 61-45N, 经度: 121-14W, 海拔: 168米

当前天气观测

该预报发布于10小时和23分钟前的15:00 UTC
风速3节,风向西转西南
温度 -8°C
湿度 92%
气压 1018 hPa
能見度: 19.3公里
散云层高于600英尺
多云层高于2700英尺
阴天层高于5000英尺
小雪

METAR: CYFS 291500Z 24003KT 12SM -SN SCT006 BKN027 OVC050 M08/M09 A3007 RMK SC3SC2SC3 SLP200

时间: 19:23 (01:23 UTC)

预报

该预报发布于13小时和45分钟前的11:38 UTC
预报有效从29日的 12点(UTC)到 29日的 24点(UTC)
风速5节,风向西北
能見度: 10公里
少量云层高于600英尺
阴天层高于5000英尺
短暂存在
从 29日的 12点(UTC)到 29日的 15点(UTC)
能見度: 4.8公里
多云层高于600英尺
阴天层高于4000英尺
小雪, 轻雾
从 29日的 1500点(UTC)
风速3节,风向多变
能見度: 10公里
散云层高于800英尺
多云层高于3000英尺
短暂存在
从 29日的 15点(UTC)到 29日的 24点(UTC)
能見度: 8.0公里
多云层高于800英尺
阴天层高于1500英尺
小雪, 轻雾

TAF: CYFS 291138Z 2912/2924 32005KT P6SM FEW006 OVC050 TEMPO 2912/2915 3SM -SN BR BKN006 OVC040 FM291500 VRB03KT P6SM SCT008 BKN030 TEMPO 2915/2924 5SM -SN BR BKN008 OVC015 RMK NXT FCST BY 291800Z

超过4000个机场的气象观测和天气预报(METAR&TAF报告)。

可查询的气象台以黄色和红色小点在地图上表示。

将鼠标移到小点上方,可查看气象台名称。

然后点击查看天气观测和预报。

如需切换地图:点击带黑十字的绿色按钮放大地图;点击带横线的绿色按钮缩小地图;或者点击绿色箭头查看邻近地区的地图。


METAR-TAF: